createdAt,value
2018-01-04T00:01:31.852Z,0
2018-01-04T00:03:33.253Z,0
2018-01-04T00:05:34.670Z,0
2018-01-04T00:07:36.081Z,0
2018-01-04T00:09:37.486Z,0
2018-01-04T00:11:39.038Z,0
2018-01-04T00:13:40.634Z,0
2018-01-04T00:15:42.188Z,0
2018-01-04T00:17:43.604Z,0
2018-01-04T00:19:45.014Z,0
2018-01-04T00:21:46.424Z,0
2018-01-04T00:23:47.861Z,0
2018-01-04T00:25:49.265Z,0
2018-01-04T00:27:50.673Z,0
2018-01-04T00:29:52.127Z,0
2018-01-04T00:31:53.639Z,0
2018-01-04T00:33:55.244Z,0
2018-01-04T00:36:37.674Z,0
2018-01-04T00:38:39.157Z,0
2018-01-04T00:40:40.545Z,0
2018-01-04T00:42:42.074Z,0
2018-01-04T00:44:43.483Z,0
2018-01-04T00:46:44.886Z,0
2018-01-04T00:48:46.317Z,0
2018-01-04T00:50:47.778Z,0
2018-01-04T00:52:49.850Z,0
2018-01-04T00:54:51.743Z,0
2018-01-04T00:56:53.201Z,0
2018-01-04T00:58:54.657Z,0
2018-01-04T01:00:56.130Z,0
2018-01-04T01:02:57.528Z,0
2018-01-04T01:04:59.615Z,0
2018-01-04T01:07:01.159Z,0
2018-01-04T01:09:02.630Z,0
2018-01-04T01:11:04.232Z,0
2018-01-04T01:13:06.349Z,0
2018-01-04T01:15:07.971Z,0
2018-01-04T01:17:09.432Z,0
2018-01-04T01:19:10.881Z,0
2018-01-04T01:21:12.481Z,0
2018-01-04T01:23:14.022Z,0
2018-01-04T01:25:15.702Z,0
2018-01-04T01:27:17.287Z,0
2018-01-04T01:29:19.095Z,0
2018-01-04T01:31:21.300Z,0
2018-01-04T01:33:22.949Z,0
2018-01-04T01:35:24.596Z,0
2018-01-04T01:37:26.612Z,0
2018-01-04T01:39:28.181Z,0
2018-01-04T01:41:29.813Z,0
2018-01-04T01:43:31.453Z,0
2018-01-04T01:45:32.931Z,0
2018-01-04T01:47:34.408Z,0
2018-01-04T01:49:36.087Z,0
2018-01-04T01:51:37.527Z,0
2018-01-04T01:53:39.158Z,0
2018-01-04T01:55:40.798Z,0
2018-01-04T01:57:42.480Z,0
2018-01-04T01:59:44.048Z,0
2018-01-04T02:01:45.829Z,0
2018-01-04T02:03:47.752Z,0
2018-01-04T02:05:49.390Z,0
2018-01-04T02:07:51.023Z,0
2018-01-04T02:09:52.658Z,0
2018-01-04T02:11:54.284Z,0
2018-01-04T02:13:55.864Z,0
2018-01-04T02:15:57.506Z,0
2018-01-04T02:17:59.173Z,0
2018-01-04T02:20:00.761Z,0
2018-01-04T02:22:02.571Z,0
2018-01-04T02:24:05.005Z,0
2018-01-04T02:26:06.668Z,0
2018-01-04T02:28:08.769Z,0
2018-01-04T02:30:10.348Z,0
2018-01-04T02:32:11.934Z,0
2018-01-04T02:34:13.565Z,0
2018-01-04T02:36:15.238Z,0
2018-01-04T02:38:16.667Z,0
2018-01-04T02:40:18.246Z,0
2018-01-04T02:42:20.438Z,0
2018-01-04T02:44:22.014Z,0
2018-01-04T02:46:23.473Z,0
2018-01-04T02:48:25.130Z,0
2018-01-04T02:50:26.803Z,0
2018-01-04T02:52:28.281Z,0
2018-01-04T02:54:29.775Z,0
2018-01-04T02:56:31.329Z,0
2018-01-04T02:58:32.916Z,0
2018-01-04T03:00:35.006Z,0
2018-01-04T03:02:36.665Z,0
2018-01-04T03:04:38.234Z,0
2018-01-04T03:06:39.891Z,0
2018-01-04T03:08:41.331Z,0
2018-01-04T03:10:42.978Z,0
2018-01-04T03:12:44.460Z,0
2018-01-04T03:14:46.106Z,0
2018-01-04T03:16:47.786Z,0
2018-01-04T03:18:49.773Z,0
2018-01-04T03:20:51.252Z,0
2018-01-04T03:22:52.918Z,0
2018-01-04T03:24:55.083Z,0
2018-01-04T03:26:56.725Z,0
2018-01-04T03:28:58.725Z,0
2018-01-04T03:31:00.776Z,0
2018-01-04T03:33:02.582Z,0
2018-01-04T03:35:04.258Z,0
2018-01-04T03:37:06.361Z,0
2018-01-04T03:39:08.005Z,0
2018-01-04T03:41:09.681Z,0
2018-01-04T03:43:11.883Z,0
2018-01-04T03:45:13.522Z,0
2018-01-04T03:47:14.979Z,0
2018-01-04T03:49:16.612Z,0
2018-01-04T03:51:18.088Z,0
2018-01-04T03:53:19.555Z,0
2018-01-04T03:55:21.190Z,0
2018-01-04T03:57:22.668Z,0
2018-01-04T03:59:24.327Z,0
2018-01-04T04:01:26.089Z,0
2018-01-04T04:03:27.752Z,0
2018-01-04T04:05:29.443Z,0
2018-01-04T04:07:31.002Z,0
2018-01-04T04:09:32.705Z,0
2018-01-04T04:11:34.390Z,0
2018-01-04T04:13:35.893Z,0
2018-01-04T04:15:37.369Z,0
2018-01-04T04:17:39.016Z,0
2018-01-04T04:19:40.744Z,0
2018-01-04T04:21:42.589Z,0
2018-01-04T04:23:44.229Z,0
2018-01-04T04:25:46.183Z,0
2018-01-04T04:27:48.445Z,0
2018-01-04T04:29:50.028Z,0
2018-01-04T04:31:51.563Z,0
2018-01-04T04:33:53.172Z,0
2018-01-04T04:35:54.638Z,0
2018-01-04T04:37:56.268Z,0
2018-01-04T04:39:57.951Z,0
2018-01-04T04:41:59.390Z,0
2018-01-04T04:44:01.030Z,0
2018-01-04T04:46:02.494Z,0
2018-01-04T04:48:04.802Z,0
2018-01-04T04:50:06.464Z,0
2018-01-04T04:52:07.937Z,0
2018-01-04T04:54:09.503Z,0
2018-01-04T04:56:11.168Z,0
2018-01-04T04:58:12.708Z,0
2018-01-04T05:00:14.194Z,0
2018-01-04T05:02:15.639Z,0
2018-01-04T05:04:17.943Z,0
2018-01-04T05:06:19.630Z,0
2018-01-04T05:08:21.950Z,0
2018-01-04T05:10:23.452Z,0
2018-01-04T05:12:25.697Z,0
2018-01-04T05:14:27.173Z,0
2018-01-04T05:16:28.603Z,0
2018-01-04T05:18:30.124Z,0
2018-01-04T05:20:31.709Z,0
2018-01-04T05:22:33.867Z,0
2018-01-04T05:24:35.362Z,0
2018-01-04T05:26:36.806Z,0
2018-01-04T05:28:38.433Z,0
2018-01-04T05:30:40.502Z,0
2018-01-04T05:32:41.955Z,0
2018-01-04T05:34:43.579Z,0
2018-01-04T05:36:45.294Z,0
2018-01-04T05:38:46.939Z,0
2018-01-04T05:40:48.623Z,0
2018-01-04T05:42:50.228Z,0
2018-01-04T05:44:51.682Z,0
2018-01-04T05:46:53.171Z,0
2018-01-04T05:48:54.896Z,0
2018-01-04T05:50:56.530Z,0
2018-01-04T05:52:57.980Z,0
2018-01-04T05:54:59.404Z,0
2018-01-04T05:57:01.003Z,0
2018-01-04T05:59:03.513Z,0
2018-01-04T06:01:05.039Z,0
2018-01-04T06:03:06.815Z,0
2018-01-04T06:05:08.285Z,0
2018-01-04T06:07:10.378Z,0
2018-01-04T06:09:11.863Z,0
2018-01-04T06:11:13.513Z,0
2018-01-04T06:13:15.118Z,0
2018-01-04T06:15:16.824Z,0
2018-01-04T06:17:18.474Z,0
2018-01-04T06:19:20.157Z,0
2018-01-04T06:21:21.760Z,0
2018-01-04T06:23:23.429Z,0
2018-01-04T06:25:25.091Z,0
2018-01-04T06:27:26.756Z,0
2018-01-04T06:29:28.232Z,0
2018-01-04T06:31:29.776Z,0
2018-01-04T06:33:31.292Z,0
2018-01-04T06:35:32.828Z,0
2018-01-04T06:37:34.384Z,0
2018-01-04T06:39:36.033Z,0
2018-01-04T06:41:37.636Z,0
2018-01-04T06:43:39.310Z,0
2018-01-04T06:45:40.775Z,0
2018-01-04T06:47:42.192Z,0
2018-01-04T06:49:43.942Z,0
2018-01-04T06:51:45.499Z,0
2018-01-04T06:53:46.962Z,0
2018-01-04T06:55:48.415Z,0
2018-01-04T06:57:49.820Z,0
2018-01-04T06:59:51.231Z,0
2018-01-04T07:01:53.061Z,0
2018-01-04T07:03:54.541Z,0
2018-01-04T07:05:55.971Z,0
2018-01-04T07:07:57.369Z,0
2018-01-04T07:09:58.786Z,0
2018-01-04T07:12:00.221Z,0
2018-01-04T07:14:01.842Z,0
2018-01-04T07:16:03.386Z,0
2018-01-04T07:18:04.859Z,0
2018-01-04T07:20:06.278Z,0
2018-01-04T07:22:07.885Z,0
2018-01-04T07:24:10.076Z,0
2018-01-04T07:26:11.544Z,0
2018-01-04T07:28:13.151Z,0
2018-01-04T07:30:14.769Z,0
2018-01-04T07:32:16.371Z,0
2018-01-04T07:34:17.865Z,0
2018-01-04T07:36:19.320Z,0
2018-01-04T07:38:20.987Z,0
2018-01-04T07:40:23.253Z,0
2018-01-04T07:42:24.862Z,0
2018-01-04T07:44:26.943Z,0
2018-01-04T07:46:28.415Z,0
2018-01-04T07:48:30.358Z,0
2018-01-04T07:50:31.880Z,0
2018-01-04T07:52:33.908Z,0
2018-01-04T07:54:35.402Z,0
2018-01-04T07:56:36.867Z,0
2018-01-04T07:58:38.339Z,0
2018-01-04T08:00:40.622Z,0
2018-01-04T08:02:42.678Z,0
2018-01-04T08:04:44.276Z,0
2018-01-04T08:06:46.567Z,0
2018-01-04T08:08:48.177Z,0
2018-01-04T08:10:49.614Z,0
2018-01-04T08:12:51.130Z,0
2018-01-04T08:14:53.295Z,0
2018-01-04T08:16:55.546Z,0
2018-01-04T08:18:57.134Z,0
2018-01-04T08:20:58.567Z,0
2018-01-04T08:23:00.169Z,0
2018-01-04T08:25:02.860Z,0
2018-01-04T08:27:04.548Z,0
2018-01-04T08:29:06.124Z,0
2018-01-04T08:31:07.655Z,0
2018-01-04T08:33:09.089Z,0
2018-01-04T08:35:10.546Z,0
2018-01-04T08:37:12.003Z,0
2018-01-04T08:39:13.642Z,0
2018-01-04T08:41:15.104Z,0
2018-01-04T08:43:16.580Z,0
2018-01-04T08:45:18.116Z,0
2018-01-04T08:47:19.584Z,0
2018-01-04T08:49:20.999Z,0
2018-01-04T08:51:23.201Z,0
2018-01-04T08:53:25.371Z,0
2018-01-04T08:55:27.728Z,0
2018-01-04T08:57:29.316Z,0
2018-01-04T08:59:30.957Z,0
2018-01-04T09:01:32.510Z,0
2018-01-04T09:03:34.298Z,0
2018-01-04T09:05:36.129Z,5
2018-01-04T09:07:37.584Z,5
2018-01-04T09:09:38.994Z,5
2018-01-04T09:11:40.543Z,5
2018-01-04T09:13:42.845Z,5
2018-01-04T09:15:44.435Z,5
2018-01-04T09:17:46.024Z,5
2018-01-04T09:19:47.689Z,5
2018-01-04T09:21:49.119Z,5
2018-01-04T09:23:50.649Z,5
2018-01-04T09:25:52.276Z,5
2018-01-04T09:27:53.761Z,5
2018-01-04T09:29:55.797Z,10
2018-01-04T09:31:57.464Z,10
2018-01-04T09:33:59.069Z,10
2018-01-04T09:36:00.747Z,10
2018-01-04T09:38:04.041Z,10
2018-01-04T09:40:06.123Z,10
2018-01-04T09:42:08.822Z,5
2018-01-04T09:44:11.374Z,5
2018-01-04T09:46:12.776Z,5
2018-01-04T09:48:14.436Z,5
2018-01-04T09:50:16.075Z,5
2018-01-04T09:52:17.724Z,5
2018-01-04T09:54:19.254Z,5
2018-01-04T09:56:20.854Z,5
2018-01-04T09:58:22.523Z,5
2018-01-04T10:00:24.178Z,5
2018-01-04T10:02:25.792Z,5
2018-01-04T10:04:27.850Z,5
2018-01-04T10:06:30.044Z,5
2018-01-04T10:08:31.727Z,5
2018-01-04T10:10:33.419Z,5
2018-01-04T10:12:35.728Z,5
2018-01-04T10:14:37.634Z,10
2018-01-04T10:16:39.084Z,10
2018-01-04T10:18:40.553Z,10
2018-01-04T10:20:42.751Z,10
2018-01-04T10:22:44.195Z,15
2018-01-04T10:24:45.845Z,15
2018-01-04T10:26:47.875Z,15
2018-01-04T10:28:49.486Z,15
2018-01-04T10:30:50.925Z,20
2018-01-04T10:32:52.366Z,20
2018-01-04T10:34:53.804Z,20
2018-01-04T10:36:55.949Z,20
2018-01-04T10:38:57.399Z,20
2018-01-04T10:40:59.689Z,20
2018-01-04T10:43:02.398Z,25
2018-01-04T10:45:09.205Z,25
2018-01-04T10:47:10.901Z,30
2018-01-04T10:49:12.395Z,30
2018-01-04T10:51:14.013Z,30
2018-01-04T10:53:15.422Z,30
2018-01-04T10:55:16.866Z,30
2018-01-04T10:57:18.356Z,30
2018-01-04T10:59:20.478Z,30
2018-01-04T11:01:21.962Z,25
2018-01-04T11:03:23.415Z,20
2018-01-04T11:05:24.833Z,20
2018-01-04T11:07:26.478Z,20
2018-01-04T11:09:28.508Z,25
2018-01-04T11:11:30.161Z,30
2018-01-04T11:13:32.030Z,45
2018-01-04T11:15:33.728Z,55
2018-01-04T11:17:35.407Z,55
2018-01-04T11:19:37.048Z,55
2018-01-04T11:21:38.959Z,35
2018-01-04T11:23:40.439Z,30
2018-01-04T11:25:41.960Z,30
2018-01-04T11:27:43.723Z,30
2018-01-04T11:29:45.379Z,35
2018-01-04T11:31:46.874Z,35
2018-01-04T11:33:48.454Z,30
2018-01-04T11:35:50.060Z,35
2018-01-04T11:37:51.735Z,35
2018-01-04T11:39:53.309Z,35
2018-01-04T11:41:54.784Z,40
2018-01-04T11:43:56.241Z,35
2018-01-04T11:45:57.866Z,35
2018-01-04T11:47:59.467Z,30
2018-01-04T11:50:01.269Z,30
2018-01-04T11:52:02.950Z,30
2018-01-04T11:54:04.864Z,30
2018-01-04T11:56:06.702Z,30
2018-01-04T11:58:08.417Z,30
2018-01-04T12:00:09.852Z,30
2018-01-04T12:02:11.305Z,30
2018-01-04T12:04:12.747Z,30
2018-01-04T12:06:14.208Z,30
2018-01-04T12:08:15.768Z,30
2018-01-04T12:10:17.395Z,25
2018-01-04T12:12:18.996Z,30
2018-01-04T12:14:20.596Z,25
2018-01-04T12:16:22.051Z,25
2018-01-04T12:18:23.526Z,25
2018-01-04T12:20:25.360Z,25
2018-01-04T12:22:26.947Z,25
2018-01-04T12:24:28.518Z,25
2018-01-04T12:26:30.223Z,25
2018-01-04T12:28:32.658Z,25
2018-01-04T12:30:34.352Z,25
2018-01-04T12:32:36.075Z,20
2018-01-04T12:34:37.477Z,25
2018-01-04T12:37:18.950Z,25
2018-01-04T12:39:20.367Z,25
2018-01-04T12:41:21.785Z,25
2018-01-04T12:43:23.192Z,20
2018-01-04T12:45:24.614Z,25
2018-01-04T12:47:26.023Z,25
2018-01-04T12:49:27.434Z,20
2018-01-04T12:51:28.925Z,20
2018-01-04T12:53:30.319Z,15
2018-01-04T12:55:31.730Z,15
2018-01-04T12:57:33.154Z,15
2018-01-04T12:59:34.588Z,10
2018-01-04T13:01:36.117Z,10
2018-01-04T13:03:37.582Z,10
2018-01-04T13:05:39.067Z,15
2018-01-04T13:07:40.485Z,15
2018-01-04T13:09:41.891Z,15
2018-01-04T13:11:43.311Z,15
2018-01-04T13:13:44.747Z,15
2018-01-04T13:15:46.224Z,10
2018-01-04T13:17:47.643Z,10
2018-01-04T13:19:49.065Z,15
2018-01-04T13:21:50.477Z,15
2018-01-04T13:23:51.889Z,10
2018-01-04T13:25:53.303Z,15
2018-01-04T13:27:54.714Z,10
2018-01-04T13:29:56.163Z,10
2018-01-04T13:31:57.558Z,15
2018-01-04T13:33:58.968Z,10
2018-01-04T13:36:00.376Z,10
2018-01-04T13:38:01.797Z,10
2018-01-04T13:40:03.209Z,10
2018-01-04T13:42:04.623Z,10
2018-01-04T13:44:06.087Z,10
2018-01-04T13:46:07.522Z,10
2018-01-04T13:48:09.049Z,5
2018-01-04T13:50:10.647Z,5
2018-01-04T13:52:12.019Z,5
2018-01-04T13:54:13.420Z,5
2018-01-04T13:56:14.846Z,5
2018-01-04T13:58:16.261Z,5
2018-01-04T14:00:17.674Z,5
2018-01-04T14:02:19.086Z,5
2018-01-04T14:04:20.500Z,5
2018-01-04T14:06:21.921Z,5
2018-01-04T14:08:23.326Z,5
2018-01-04T14:10:24.735Z,5
2018-01-04T14:12:26.143Z,5
2018-01-04T14:14:27.554Z,0
2018-01-04T14:16:28.971Z,0
2018-01-04T14:18:30.373Z,0
2018-01-04T14:20:31.832Z,0
2018-01-04T14:22:33.246Z,0
2018-01-04T14:24:34.658Z,0
2018-01-04T14:26:36.080Z,0
2018-01-04T14:28:37.494Z,0
2018-01-04T14:30:38.913Z,0
2018-01-04T14:32:40.325Z,0
2018-01-04T14:34:41.738Z,0
2018-01-04T14:36:43.150Z,0
2018-01-04T14:38:44.613Z,0
2018-01-04T14:40:46.022Z,0
2018-01-04T14:42:47.432Z,0
2018-01-04T14:44:48.841Z,0
2018-01-04T14:46:50.282Z,0
2018-01-04T14:48:51.753Z,0
2018-01-04T14:50:53.186Z,0
2018-01-04T14:52:54.588Z,0
2018-01-04T14:54:55.999Z,0
2018-01-04T14:56:57.412Z,0
2018-01-04T14:58:58.817Z,0
2018-01-04T15:01:00.239Z,0
2018-01-04T15:03:01.706Z,0
2018-01-04T15:05:03.228Z,0
2018-01-04T15:07:04.681Z,0
2018-01-04T15:09:06.044Z,0
2018-01-04T15:11:07.479Z,0
2018-01-04T15:13:08.946Z,0
2018-01-04T15:15:10.654Z,0
2018-01-04T15:17:12.076Z,0
2018-01-04T15:19:13.535Z,0
2018-01-04T15:21:15.131Z,0
2018-01-04T15:23:16.612Z,0
2018-01-04T15:25:18.040Z,0
2018-01-04T15:27:19.478Z,0
2018-01-04T15:29:20.912Z,0
2018-01-04T15:31:22.385Z,0
2018-01-04T15:33:23.855Z,0
2018-01-04T15:35:25.294Z,0
2018-01-04T15:37:26.730Z,0
2018-01-04T15:39:28.176Z,0
2018-01-04T15:41:29.661Z,0
2018-01-04T15:43:31.135Z,0
2018-01-04T15:45:32.520Z,0
2018-01-04T15:47:33.987Z,0
2018-01-04T15:49:35.493Z,0
2018-01-04T15:51:37.010Z,0
2018-01-04T15:53:38.642Z,0
2018-01-04T15:55:40.148Z,0
2018-01-04T15:57:41.648Z,0
2018-01-04T15:59:43.291Z,0
2018-01-04T16:01:44.957Z,0
2018-01-04T16:03:46.668Z,0
2018-01-04T16:05:48.302Z,0
2018-01-04T16:07:49.868Z,0
2018-01-04T16:09:51.337Z,0
2018-01-04T16:11:52.790Z,0
2018-01-04T16:13:54.413Z,0
2018-01-04T16:15:56.053Z,0
2018-01-04T16:17:57.704Z,0
2018-01-04T16:19:59.331Z,0
2018-01-04T16:22:00.751Z,0
2018-01-04T16:24:02.227Z,0
2018-01-04T16:26:03.872Z,0
2018-01-04T16:28:05.310Z,0
2018-01-04T16:30:06.956Z,0
2018-01-04T16:32:08.448Z,0
2018-01-04T16:34:09.919Z,0
2018-01-04T16:36:11.403Z,0
2018-01-04T16:38:12.820Z,0
2018-01-04T16:40:14.224Z,0
2018-01-04T16:42:15.632Z,0
2018-01-04T16:44:17.042Z,0
2018-01-04T16:46:18.462Z,0
2018-01-04T16:48:19.865Z,0
2018-01-04T16:50:21.312Z,0
2018-01-04T16:52:22.733Z,0
2018-01-04T16:54:24.165Z,0
2018-01-04T16:56:25.578Z,0
2018-01-04T16:58:27.188Z,0
2018-01-04T17:00:28.703Z,0
2018-01-04T17:02:30.141Z,0
2018-01-04T17:04:31.699Z,0
2018-01-04T17:06:33.163Z,0
2018-01-04T17:08:34.616Z,0
2018-01-04T17:10:36.042Z,0
2018-01-04T17:12:37.450Z,0
2018-01-04T17:14:38.859Z,0
2018-01-04T17:16:40.273Z,0
2018-01-04T17:18:41.682Z,0
2018-01-04T17:20:43.094Z,0
2018-01-04T17:22:44.504Z,0
2018-01-04T17:24:45.917Z,0
2018-01-04T17:26:47.346Z,0
2018-01-04T17:28:48.734Z,0
2018-01-04T17:30:50.153Z,0
2018-01-04T17:32:51.564Z,0
2018-01-04T17:34:52.971Z,0
2018-01-04T17:36:54.380Z,0
2018-01-04T17:38:55.798Z,0
2018-01-04T17:40:57.212Z,0
2018-01-04T17:42:58.620Z,0
2018-01-04T17:45:00.036Z,0
2018-01-04T17:47:01.457Z,0
2018-01-04T17:49:02.881Z,0
2018-01-04T17:51:04.308Z,0
2018-01-04T17:53:05.721Z,0
2018-01-04T17:55:07.136Z,0
2018-01-04T17:57:08.547Z,0
2018-01-04T17:59:09.959Z,0
2018-01-04T18:01:11.370Z,0
2018-01-04T18:03:12.861Z,0
2018-01-04T18:05:14.318Z,0
2018-01-04T18:07:15.790Z,0
2018-01-04T18:09:17.333Z,0
2018-01-04T18:11:18.737Z,0
2018-01-04T18:13:20.148Z,0
2018-01-04T18:15:21.562Z,0
2018-01-04T18:17:22.970Z,0
2018-01-04T18:19:24.417Z,0
2018-01-04T18:21:25.852Z,0
2018-01-04T18:23:27.532Z,0
2018-01-04T18:25:29.426Z,0
2018-01-04T18:27:30.936Z,0
2018-01-04T18:29:32.355Z,0
2018-01-04T18:31:33.792Z,0
2018-01-04T18:33:35.216Z,0
2018-01-04T18:35:36.678Z,0
2018-01-04T18:37:38.191Z,0
2018-01-04T18:39:39.601Z,0
2018-01-04T18:41:41.014Z,0
2018-01-04T18:43:42.426Z,0
2018-01-04T18:45:43.843Z,0
2018-01-04T18:47:45.257Z,0
2018-01-04T18:49:46.696Z,0
2018-01-04T18:51:48.113Z,0
2018-01-04T18:53:49.529Z,0
2018-01-04T18:55:50.984Z,0
2018-01-04T18:57:52.414Z,0
2018-01-04T18:59:53.864Z,0
2018-01-04T19:01:55.294Z,0
2018-01-04T19:03:56.773Z,0
2018-01-04T19:05:58.311Z,0
2018-01-04T19:07:59.727Z,0
2018-01-04T19:10:01.139Z,0
2018-01-04T19:12:02.549Z,0
2018-01-04T19:14:03.963Z,0
2018-01-04T19:16:05.380Z,0
2018-01-04T19:18:06.794Z,0
2018-01-04T19:20:08.251Z,0
2018-01-04T19:22:09.684Z,0
2018-01-04T19:24:11.122Z,0
2018-01-04T19:26:12.741Z,0
2018-01-04T19:28:14.176Z,0
2018-01-04T19:30:15.622Z,0
2018-01-04T19:32:17.058Z,0
2018-01-04T19:34:18.640Z,0
2018-01-04T19:36:20.287Z,0
2018-01-04T19:38:21.972Z,0
2018-01-04T19:40:23.530Z,0
2018-01-04T19:42:24.973Z,0
2018-01-04T19:44:26.448Z,0
2018-01-04T19:46:28.480Z,0
2018-01-04T19:48:29.903Z,0
2018-01-04T19:50:31.327Z,0
2018-01-04T19:52:32.739Z,0
2018-01-04T19:54:34.151Z,0
2018-01-04T19:56:35.565Z,0
2018-01-04T19:58:36.976Z,0
2018-01-04T20:00:38.438Z,0
2018-01-04T20:02:39.823Z,0
2018-01-04T20:04:41.239Z,0
2018-01-04T20:06:42.651Z,0
2018-01-04T20:08:44.065Z,0
2018-01-04T20:10:45.492Z,0
2018-01-04T20:12:46.916Z,0
2018-01-04T20:14:48.327Z,0
2018-01-04T20:16:49.768Z,0
2018-01-04T20:18:51.180Z,0
2018-01-04T20:20:52.677Z,0
2018-01-04T20:22:54.148Z,0
2018-01-04T20:24:55.748Z,0
2018-01-04T20:26:57.190Z,0
2018-01-04T20:28:58.620Z,0
2018-01-04T20:31:00.088Z,0
2018-01-04T20:33:01.494Z,0
2018-01-04T20:35:02.904Z,0
2018-01-04T20:37:04.317Z,0
2018-01-04T20:39:05.735Z,0
2018-01-04T20:41:07.241Z,0
2018-01-04T20:43:08.665Z,0
2018-01-04T20:45:10.139Z,0
2018-01-04T20:47:11.555Z,0
2018-01-04T20:49:12.965Z,0
2018-01-04T20:51:14.380Z,0
2018-01-04T20:53:16.310Z,0
2018-01-04T20:55:17.717Z,0
2018-01-04T20:57:19.136Z,0
2018-01-04T20:59:20.545Z,0
2018-01-04T21:01:21.954Z,0
2018-01-04T21:03:23.363Z,0
2018-01-04T21:05:24.775Z,0
2018-01-04T21:07:26.182Z,0
2018-01-04T21:09:27.594Z,0
2018-01-04T21:11:29.013Z,0
2018-01-04T21:13:30.417Z,0
2018-01-04T21:15:31.831Z,0
2018-01-04T21:17:33.239Z,0
2018-01-04T21:19:34.650Z,0
2018-01-04T21:21:36.062Z,0
2018-01-04T21:23:37.470Z,0
2018-01-04T21:25:38.878Z,0
2018-01-04T21:27:40.313Z,0
2018-01-04T21:29:41.776Z,0
2018-01-04T21:31:43.276Z,0
2018-01-04T21:33:44.678Z,0
2018-01-04T21:35:46.088Z,0
2018-01-04T21:37:47.499Z,0
2018-01-04T21:39:48.911Z,0
2018-01-04T21:41:50.328Z,0
2018-01-04T21:43:51.735Z,0
2018-01-04T21:45:53.288Z,0
2018-01-04T21:47:54.847Z,0
2018-01-04T21:49:56.258Z,0
2018-01-04T21:51:57.676Z,0
2018-01-04T21:53:59.085Z,0
2018-01-04T21:56:00.535Z,0
2018-01-04T21:58:01.925Z,0
2018-01-04T22:00:03.348Z,0
2018-01-04T22:02:04.822Z,0
2018-01-04T22:04:06.572Z,0
2018-01-04T22:06:08.151Z,0
2018-01-04T22:08:09.653Z,0
2018-01-04T22:10:11.064Z,0
2018-01-04T22:12:12.490Z,0
2018-01-04T22:14:13.940Z,0
2018-01-04T22:16:15.516Z,0
2018-01-04T22:18:17.177Z,0
2018-01-04T22:20:18.674Z,0
2018-01-04T22:22:20.107Z,0
2018-01-04T22:24:21.714Z,0
2018-01-04T22:26:23.198Z,0
2018-01-04T22:28:24.616Z,0
2018-01-04T22:30:26.049Z,0
2018-01-04T22:32:27.580Z,0
2018-01-04T22:34:29.019Z,0
2018-01-04T22:36:30.494Z,0
2018-01-04T22:38:31.955Z,0
2018-01-04T22:40:33.421Z,0
2018-01-04T22:42:34.849Z,0
2018-01-04T22:44:36.286Z,0
2018-01-04T22:46:37.923Z,0
2018-01-04T22:48:39.352Z,0
2018-01-04T22:50:40.870Z,0
2018-01-04T22:52:42.456Z,0
2018-01-04T22:54:43.910Z,0
2018-01-04T22:56:45.556Z,0
2018-01-04T22:58:47.241Z,0
2018-01-04T23:00:48.672Z,0
2018-01-04T23:02:50.311Z,0
2018-01-04T23:04:51.915Z,0
2018-01-04T23:06:53.352Z,0
2018-01-04T23:08:54.782Z,0
2018-01-04T23:10:56.207Z,0
2018-01-04T23:12:57.828Z,0
2018-01-04T23:14:59.515Z,0
2018-01-04T23:17:01.014Z,0
2018-01-04T23:19:03.454Z,0
2018-01-04T23:21:04.864Z,0
2018-01-04T23:23:06.270Z,0
2018-01-04T23:25:07.766Z,0
2018-01-04T23:27:09.210Z,0
2018-01-04T23:29:10.618Z,0
2018-01-04T23:31:12.304Z,0
2018-01-04T23:33:13.743Z,0
2018-01-04T23:35:15.159Z,0
2018-01-04T23:37:16.595Z,0
2018-01-04T23:39:18.027Z,0
2018-01-04T23:41:19.863Z,0
2018-01-04T23:43:21.326Z,0
2018-01-04T23:45:22.813Z,0
2018-01-04T23:47:24.455Z,0
2018-01-04T23:49:26.210Z,0
2018-01-04T23:51:27.648Z,0
2018-01-04T23:53:29.178Z,0
2018-01-04T23:55:31.045Z,0
2018-01-04T23:57:32.456Z,0
2018-01-04T23:59:33.924Z,0
